Time;durP1;ratioP1;P1;durP2;ratioP2;P2;SDS_P1;SDS_P2;PMS_P1;PMS_P2;Temp;Humidity;BMP_temperature;BMP_pressure;BME280_temperature;BME280_humidity;BME280_pressure;Samples;Min_cycle;Max_cycle;Signal;HPM_P1;HPM_P2
2022/06/11 00:00:24;;;;;;;6.38;2.60;;;;;;;;;;5075737;28;20131;-72
2022/06/11 00:02:50;;;;;;;3.33;2.33;;;;;;;;;;5058994;28;20071;-72
2022/06/11 00:05:17;;;;;;;7.30;2.80;;;;;;;;;;5075702;28;20047;-73
2022/06/11 00:07:43;;;;;;;4.38;2.20;;;;;;;;;;5075577;28;20047;-72
2022/06/11 00:10:09;;;;;;;5.13;2.85;;;;;;;;;;5059036;28;20032;-72
2022/06/11 00:12:36;;;;;;;3.85;2.85;;;;;;;;;;5075866;28;20130;-72
2022/06/11 00:15:03;;;;;;;5.75;3.25;;;;;;;;;;5075381;28;20052;-73
2022/06/11 00:17:29;;;;;;;5.00;2.95;;;;;;;;;;5058764;28;20044;-73
2022/06/11 00:19:55;;;;;;;4.35;2.67;;;;;;;;;;5058931;28;20044;-72
2022/06/11 00:22:22;;;;;;;4.60;2.00;;;;;;;;;;5058762;28;20040;-73
2022/06/11 00:24:48;;;;;;;3.08;2.00;;;;;;;;;;5058621;28;20112;-72
2022/06/11 00:27:15;;;;;;;2.58;1.80;;;;;;;;;;5075118;28;20089;-73
2022/06/11 00:29:42;;;;;;;2.17;1.58;;;;;;;;;;5075137;28;20406;-72
2022/06/11 00:32:10;;;;;;;5.40;1.80;;;;;;;;;;5075302;28;20076;-72
2022/06/11 00:34:36;;;;;;;3.70;1.73;;;;;;;;;;5075166;28;20044;-72
2022/06/11 00:37:03;;;;;;;1.33;1.00;;;;;;;;;;5075119;28;20040;-72
2022/06/11 00:39:30;;;;;;;4.55;1.67;;;;;;;;;;5058382;28;20048;-72
2022/06/11 00:42:00;;;;;;;1.88;1.30;;;;;;;;;;5074851;28;20406;-73
2022/06/11 00:44:27;;;;;;;5.57;1.60;;;;;;;;;;5074759;28;20052;-73
2022/06/11 00:46:52;;;;;;;2.78;1.80;;;;;;;;;;5074462;28;20449;-72
2022/06/11 00:49:22;;;;;;;3.28;1.30;;;;;;;;;;5074527;28;20054;-72
2022/06/11 00:51:49;;;;;;;4.75;1.75;;;;;;;;;;5074806;28;20076;-73
2022/06/11 00:54:17;;;;;;;2.13;1.55;;;;;;;;;;5074617;28;20066;-72
2022/06/11 00:56:44;;;;;;;1.52;1.10;;;;;;;;;;5074795;28;20051;-72
2022/06/11 00:59:19;;;;;;;2.95;1.40;;;;;;;;;;5074597;28;20487;-72
2022/06/11 01:01:47;;;;;;;2.22;1.65;;;;;;;;;;5074395;28;20052;-72
2022/06/11 01:04:32;;;;;;;1.83;1.20;;;;;;;;;;5074734;28;20050;-72
2022/06/11 01:07:00;;;;;;;3.40;1.15;;;;;;;;;;5057821;28;20036;-73
2022/06/11 01:09:32;;;;;;;2.83;1.30;;;;;;;;;;5074524;28;20043;-72
2022/06/11 01:12:19;;;;;;;2.60;1.35;;;;;;;;;;5074405;28;20032;-73
2022/06/11 01:14:48;;;;;;;1.40;1.10;;;;;;;;;;5024778;28;20100;-72
2022/06/11 01:17:14;;;;;;;2.50;1.45;;;;;;;;;;5074632;28;20518;-73
2022/06/11 01:19:58;;;;;;;2.28;1.35;;;;;;;;;;5074298;28;20036;-72
2022/06/11 01:22:30;;;;;;;2.20;1.27;;;;;;;;;;5092426;28;20095;-73
2022/06/11 01:25:15;;;;;;;3.20;1.45;;;;;;;;;;5074123;28;20430;-72
2022/06/11 01:28:04;;;;;;;3.08;1.23;;;;;;;;;;5060471;28;20078;-72
2022/06/11 01:30:43;;;;;;;1.15;1.02;;;;;;;;;;5078069;28;20047;-73
2022/06/11 01:33:22;;;;;;;1.17;1.00;;;;;;;;;;5078812;28;20047;-73
2022/06/11 01:35:48;;;;;;;2.03;1.30;;;;;;;;;;5078357;28;20464;-73
2022/06/11 01:38:33;;;;;;;3.03;1.20;;;;;;;;;;5078749;28;20079;-73
2022/06/11 01:40:59;;;;;;;2.65;1.15;;;;;;;;;;5061850;28;20445;-72
2022/06/11 01:43:25;;;;;;;6.32;1.20;;;;;;;;;;5078298;28;20047;-72
2022/06/11 01:45:51;;;;;;;3.97;1.52;;;;;;;;;;5061166;28;20056;-72
2022/06/11 01:48:20;;;;;;;2.58;1.30;;;;;;;;;;5078127;28;20040;-72
2022/06/11 01:51:05;;;;;;;2.65;1.17;;;;;;;;;;5078046;28;20506;-72
2022/06/11 01:53:46;;;;;;;4.38;1.42;;;;;;;;;;5078231;28;20403;-72
2022/06/11 01:56:21;;;;;;;2.72;1.40;;;;;;;;;;5061383;28;20097;-72
2022/06/11 01:58:48;;;;;;;2.10;1.20;;;;;;;;;;5078063;28;20123;-72
2022/06/11 02:01:22;;;;;;;2.53;1.20;;;;;;;;;;5079080;28;20043;-73
2022/06/11 02:04:00;;;;;;;3.90;1.52;;;;;;;;;;5078079;28;20040;-73
2022/06/11 02:07:03;;;;;;;2.72;0.93;;;15.80;99.90;;;;;;5078074;28;20123;-74
2022/06/11 02:09:47;;;;;;;2.53;1.67;;;15.80;99.90;;;;;;5078166;28;20071;-73
2022/06/11 02:12:34;;;;;;;3.25;1.40;;;15.60;99.90;;;;;;5078138;28;20068;-73
2022/06/11 02:15:28;;;;;;;3.47;1.60;;;15.50;99.90;;;;;;5077832;28;20036;-73
2022/06/11 02:18:04;;;;;;;3.28;1.60;;;15.50;99.90;;;;;;5078102;28;20142;-73
2022/06/11 02:20:39;;;;;;;2.63;1.48;;;15.40;99.90;;;;;;5077805;28;20050;-73
2022/06/11 02:23:22;;;;;;;5.07;1.67;;;15.40;99.90;;;;;;5077623;28;20100;-73
2022/06/11 02:25:54;;;;;;;3.03;1.35;;;15.30;99.90;;;;;;5077462;28;20100;-73
2022/06/11 02:28:25;;;;;;;3.72;1.52;;;15.40;99.90;;;;;;5077346;28;20403;-73
2022/06/11 02:30:54;;;;;;;3.42;1.00;;;15.40;99.90;;;;;;5077424;28;20036;-73
2022/06/11 02:33:21;;;;;;;1.73;1.48;;;15.40;99.90;;;;;;5077582;28;20044;-73
2022/06/11 02:35:50;;;;;;;6.45;1.80;;;15.30;99.90;;;;;;5077347;28;20415;-73
2022/06/11 02:38:19;;;;;;;3.13;1.50;;;15.30;99.90;;;;;;5077116;28;20079;-73
2022/06/11 02:40:53;;;;;;;2.05;1.60;;;15.40;99.90;;;;;;5077132;28;20044;-73
2022/06/11 02:43:20;;;;;;;3.97;2.33;;;15.40;99.90;;;;;;5077106;28;20048;-72
2022/06/11 02:45:46;;;;;;;3.70;1.80;;;15.40;99.90;;;;;;5077237;28;20052;-73
2022/06/11 02:48:13;;;;;;;6.05;2.45;;;15.40;99.90;;;;;;5076862;28;20097;-73
2022/06/11 02:50:39;;;;;;;2.65;1.77;;;15.70;99.90;;;;;;5077264;28;20039;-73
2022/06/11 02:53:06;;;;;;;3.08;2.05;;;15.30;99.90;;;;;;5077039;28;20532;-73
2022/06/11 02:55:34;;;;;;;2.70;2.17;;;15.30;99.90;;;;;;5076927;28;20446;-72
2022/06/11 02:58:01;;;;;;;4.30;1.98;;;15.30;99.90;;;;;;5076694;28;20044;-72
2022/06/11 03:00:33;;;;;;;3.38;2.50;;;15.30;99.90;;;;;;5076728;28;20127;-73
2022/06/11 03:02:59;;;;;;;6.25;2.80;;;15.30;99.90;;;;;;5095064;28;20040;-72
2022/06/11 03:05:29;;;;;;;7.32;2.53;;;15.30;99.90;;;;;;5076703;28;20040;-72
2022/06/11 03:07:55;;;;;;;4.05;2.50;;;15.30;99.90;;;;;;5076771;28;20075;-74
2022/06/11 03:10:23;;;;;;;3.38;2.30;;;15.20;99.90;;;;;;5076544;28;20077;-73
2022/06/11 03:12:50;;;;;;;3.00;2.20;;;15.20;99.90;;;;;;5076491;28;20097;-73
2022/06/11 03:15:17;;;;;;;8.02;3.05;;;15.50;99.90;;;;;;5076441;28;20043;-73
2022/06/11 03:17:44;;;;;;;5.25;2.40;;;15.30;99.90;;;;;;5076573;28;20062;-73
2022/06/11 03:20:12;;;;;;;4.78;2.25;;;15.20;99.90;;;;;;5076687;28;20407;-73
2022/06/11 03:22:38;;;;;;;4.30;2.80;;;15.20;99.90;;;;;;5076685;28;20504;-73
2022/06/11 03:25:05;;;;;;;3.88;2.20;;;15.20;99.90;;;;;;5076256;28;20035;-73
2022/06/11 03:27:31;;;;;;;6.07;3.03;;;15.20;99.90;;;;;;5076370;28;20058;-73
2022/06/11 03:29:56;;;;;;;3.67;2.30;;;15.20;99.90;;;;;;5076536;28;20032;-73
2022/06/11 03:32:22;;;;;;;4.93;2.60;;;15.20;99.90;;;;;;5076199;28;20039;-73
2022/06/11 03:34:48;;;;;;;4.97;2.50;;;15.20;99.90;;;;;;5076285;28;20067;-73
2022/06/11 03:37:14;;;;;;;5.40;2.58;;;15.20;99.90;;;;;;5059354;28;20032;-73
2022/06/11 03:39:40;;;;;;;5.78;2.63;;;15.10;99.90;;;;;;5076197;28;20040;-73
2022/06/11 03:42:06;;;;;;;4.22;2.60;;;15.20;99.90;;;;;;5076287;28;20040;-72
2022/06/11 03:44:32;;;;;;;3.03;2.03;;;15.20;99.90;;;;;;5076094;28;20118;-72
2022/06/11 03:46:58;;;;;;;4.38;2.70;;;15.20;99.90;;;;;;5075729;28;20131;-72
2022/06/11 03:49:24;;;;;;;3.30;2.38;;;15.20;99.90;;;;;;5075583;28;20412;-73
2022/06/11 03:51:50;;;;;;;4.43;2.40;;;15.20;99.90;;;;;;5059028;28;20044;-73
2022/06/11 03:54:16;;;;;;;5.40;2.72;;;15.20;99.90;;;;;;5075601;28;20128;-73
2022/06/11 03:56:44;;;;;;;4.45;2.45;;;15.30;99.90;;;;;;5059236;28;20036;-73
2022/06/11 03:59:10;;;;;;;4.43;2.67;;;15.50;99.90;;;;;;5075659;28;20440;-73
2022/06/11 04:01:38;;;;;;;4.22;2.55;;;15.20;99.90;;;;;;5075697;28;20074;-73
2022/06/11 04:04:08;;;;;;;5.40;2.90;;;15.20;99.90;;;;;;5075702;28;20044;-73
2022/06/11 04:07:02;;;;;;;8.30;3.05;;;15.20;99.90;;;;;;5075904;28;20054;-73
2022/06/11 04:09:34;;;;;;;5.70;2.70;;;15.20;99.90;;;;;;5070804;28;20111;-73
2022/06/11 04:12:02;;;;;;;5.10;2.75;;;15.20;99.90;;;;;;5059122;28;20380;-73
2022/06/11 04:14:28;;;;;;;4.05;3.03;;;15.20;99.90;;;;;;5075307;28;20119;-73
2022/06/11 04:17:03;;;;;;;5.18;3.33;;;15.20;99.90;;;;;;5059176;28;20473;-73
2022/06/11 04:19:32;;;;;;;5.05;3.25;;;15.20;99.90;;;;;;5059188;28;20044;-73
2022/06/11 04:21:59;;;;;;;4.85;2.97;;;15.20;99.90;;;;;;5075702;28;20078;-73
2022/06/11 04:24:27;;;;;;;4.82;2.92;;;15.20;99.90;;;;;;5075567;28;20086;-73
2022/06/11 04:26:55;;;;;;;6.50;3.10;;;15.20;99.90;;;;;;5075385;28;20040;-73
2022/06/11 04:29:26;;;;;;;5.00;3.35;;;15.20;99.90;;;;;;5075403;28;20040;-73
2022/06/11 04:31:54;;;;;;;3.55;2.45;;;15.20;99.90;;;;;;5058564;28;20075;-73
2022/06/11 04:34:21;;;;;;;4.97;2.85;;;15.20;99.90;;;;;;5058600;28;20136;-73
2022/06/11 04:36:48;;;;;;;4.72;2.88;;;15.50;99.90;;;;;;5075039;28;20050;-73
2022/06/11 04:39:16;;;;;;;6.18;2.92;;;15.30;99.90;;;;;;5075229;28;20083;-73
2022/06/11 04:41:42;;;;;;;5.50;3.15;;;15.30;99.90;;;;;;5075340;28;20372;-73
2022/06/11 04:44:08;;;;;;;4.35;2.90;;;15.30;99.90;;;;;;5058568;28;20145;-73
2022/06/11 04:46:34;;;;;;;4.63;2.42;;;15.30;99.90;;;;;;5074765;28;20090;-73
2022/06/11 04:49:00;;;;;;;4.30;2.33;;;15.40;99.90;;;;;;5075107;28;20415;-73
2022/06/11 04:51:26;;;;;;;5.63;3.42;;;15.40;99.90;;;;;;5075186;28;20040;-72
2022/06/11 04:53:51;;;;;;;5.13;2.35;;;15.50;99.90;;;;;;5075103;28;20106;-72
2022/06/11 04:56:23;;;;;;;3.85;1.90;;;15.50;99.90;;;;;;5058372;28;20075;-73
2022/06/11 04:58:48;;;;;;;3.55;2.22;;;15.50;99.90;;;;;;5074802;28;20040;-73
2022/06/11 05:01:15;;;;;;;6.20;2.75;;;15.60;99.90;;;;;;5073915;28;20063;-73
2022/06/11 05:03:41;;;;;;;5.75;2.05;;;15.60;99.90;;;;;;5074681;28;20040;-73
2022/06/11 05:06:07;;;;;;;3.13;1.83;;;15.70;99.90;;;;;;5057764;28;20040;-73
2022/06/11 05:08:32;;;;;;;4.28;2.25;;;15.70;99.90;;;;;;5074415;28;20118;-73
2022/06/11 05:10:59;;;;;;;3.25;1.77;;;15.70;99.90;;;;;;5057748;28;20472;-73
2022/06/11 05:13:24;;;;;;;4.82;2.35;;;15.70;99.90;;;;;;5074667;28;20040;-74
2022/06/11 05:15:53;;;;;;;3.72;1.75;;;15.80;99.90;;;;;;5074680;28;20433;-74
2022/06/11 05:18:20;;;;;;;9.18;2.45;;;15.80;99.90;;;;;;5074688;28;20052;-74
2022/06/11 05:20:46;;;;;;;1.58;1.42;;;15.80;99.90;;;;;;5057825;28;20101;-73
2022/06/11 05:23:13;;;;;;;8.02;2.03;;;15.90;99.90;;;;;;5074974;28;20395;-74
2022/06/11 05:25:41;;;;;;;4.53;1.95;;;16.10;99.90;;;;;;5074622;28;20123;-74
2022/06/11 05:28:11;;;;;;;4.40;1.30;;;16.00;99.90;;;;;;5074690;28;20047;-74
2022/06/11 05:30:37;;;;;;;3.72;1.25;;;16.10;99.90;;;;;;5074874;28;20044;-74
2022/06/11 05:33:03;;;;;;;3.88;1.58;;;16.10;99.90;;;;;;5074721;28;20040;-74
2022/06/11 05:35:31;;;;;;;6.82;1.73;;;16.20;99.90;;;;;;5074698;28;20036;-74
2022/06/11 05:38:00;;;;;;;7.25;1.73;;;16.30;99.90;;;;;;5057833;28;20051;-74
2022/06/11 05:40:30;;;;;;;6.03;1.52;;;16.40;99.90;;;;;;5074793;28;20559;-74
2022/06/11 05:42:56;;;;;;;5.17;1.50;;;16.50;99.90;;;;;;5074632;28;20079;-74
2022/06/11 05:45:29;;;;;;;6.93;1.45;;;16.70;99.90;;;;;;5074703;28;20124;-76
2022/06/11 05:47:56;;;;;;;2.80;1.23;;;16.60;99.90;;;;;;5057751;28;20131;-73
2022/06/11 05:50:28;;;;;;;2.17;1.35;;;16.60;99.90;;;;;;5057748;28;20044;-73
2022/06/11 05:52:55;;;;;;;5.10;1.17;;;16.70;99.90;;;;;;5057691;28;20111;-75
2022/06/11 05:55:25;;;;;;;6.75;1.50;;;16.80;99.90;;;;;;5074735;28;20047;-75
2022/06/11 05:57:55;;;;;;;2.55;1.13;;;16.80;99.90;;;;;;5074850;28;20074;-75
2022/06/11 06:00:23;;;;;;;4.32;1.20;;;16.90;99.90;;;;;;5092955;28;20389;-76
2022/06/11 06:02:48;;;;;;;4.63;1.35;;;17.00;99.90;;;;;;5057521;28;20079;-76
2022/06/11 06:05:19;;;;;;;2.30;0.88;;;17.00;99.90;;;;;;5074362;28;20036;-76
2022/06/11 06:07:45;;;;;;;1.70;0.93;;;17.20;99.90;;;;;;5074300;28;20123;-77
2022/06/11 06:10:11;;;;;;;4.35;1.42;;;17.20;99.90;;;;;;5074603;28;20086;-75
2022/06/11 06:12:37;;;;;;;2.42;1.65;;;17.30;99.90;;;;;;5058228;28;20098;-76
2022/06/11 06:15:06;;;;;;;4.75;1.92;;;17.30;99.90;;;;;;5061626;28;20121;-75
2022/06/11 06:17:32;;;;;;;2.00;1.13;;;17.40;99.90;;;;;;5077758;28;20047;-78
2022/06/11 06:19:58;;;;;;;3.63;1.08;;;17.40;99.90;;;;;;5061297;28;20048;-76
2022/06/11 06:22:24;;;;;;;3.50;1.15;;;17.50;99.90;;;;;;5077760;28;20105;-76
2022/06/11 06:24:49;;;;;;;1.48;0.93;;;17.60;99.90;;;;;;5061077;28;20055;-74
2022/06/11 06:27:15;;;;;;;4.97;1.45;;;17.60;99.90;;;;;;5077546;28;20044;-76
2022/06/11 06:29:41;;;;;;;7.82;1.45;;;17.70;99.90;;;;;;5060995;28;20056;-75
2022/06/11 06:32:06;;;;;;;5.60;1.35;;;17.70;99.90;;;;;;5077368;28;20043;-76
2022/06/11 06:34:32;;;;;;;9.75;1.45;;;17.80;99.90;;;;;;5061518;28;20040;-76
2022/06/11 06:36:58;;;;;;;3.53;1.02;;;17.70;99.90;;;;;;5077403;28;20035;-73
2022/06/11 06:39:23;;;;;;;4.35;1.58;;;17.60;99.90;;;;;;5077300;28;20063;-74
2022/06/11 06:41:49;;;;;;;2.92;1.25;;;17.80;99.90;;;;;;5060974;28;20063;-75
2022/06/11 06:44:16;;;;;;;3.65;1.15;;;17.70;99.90;;;;;;5061289;28;20437;-75
2022/06/11 06:46:42;;;;;;;4.10;1.25;;;17.90;99.90;;;;;;5060956;28;20052;-75
2022/06/11 06:49:08;;;;;;;2.65;1.30;;;17.90;99.90;;;;;;5078295;28;20485;-76
2022/06/11 06:51:34;;;;;;;4.70;1.30;;;18.00;99.90;;;;;;5078304;28;20040;-75
2022/06/11 06:54:00;;;;;;;7.55;1.60;;;18.10;99.90;;;;;;5044715;28;20090;-74
2022/06/11 06:56:31;;;;;;;6.05;1.60;;;18.20;99.90;;;;;;5077624;28;20032;-74
2022/06/11 06:58:57;;;;;;;4.32;1.20;;;18.20;99.90;;;;;;5077558;28;20047;-74
2022/06/11 07:01:26;;;;;;;4.32;1.27;;;18.20;99.90;;;;;;5077409;28;20418;-74
2022/06/11 07:03:52;;;;;;;11.00;1.58;;;18.30;99.90;;;;;;5044257;28;20112;-74
2022/06/11 07:06:18;;;;;;;3.47;1.50;;;18.40;99.90;;;;;;5060693;28;20135;-76
2022/06/11 07:08:44;;;;;;;5.55;1.40;;;18.50;99.90;;;;;;5077228;28;20123;-74
2022/06/11 07:11:09;;;;;;;7.97;1.75;;;18.50;99.90;;;;;;5076914;28;20070;-74
2022/06/11 07:13:35;;;;;;;5.93;1.63;;;18.40;99.90;;;;;;5060306;28;20040;-76
2022/06/11 07:16:02;;;;;;;4.05;1.25;;;18.50;99.90;;;;;;5043738;28;20040;-76
2022/06/11 07:18:33;;;;;;;4.30;1.45;;;18.60;99.90;;;;;;5077105;28;20040;-75
2022/06/11 07:21:01;;;;;;;5.95;1.50;;;18.70;99.90;;;;;;5077002;28;20085;-73
2022/06/11 07:23:37;;;;;;;6.30;1.63;;;18.80;99.90;;;;;;5076611;28;20048;-76
2022/06/11 07:26:09;;;;;;;7.45;1.85;;;18.70;99.90;;;;;;5076223;28;20186;-75
2022/06/11 07:28:43;;;;;;;5.13;1.77;;;18.50;99.90;;;;;;5076645;28;20046;-74
2022/06/11 07:31:08;;;;;;;4.68;1.27;;;18.70;99.90;;;;;;5059573;28;20044;-72
2022/06/11 07:33:34;;;;;;;7.80;1.40;;;18.80;99.90;;;;;;5076379;28;20039;-74
2022/06/11 07:36:00;;;;;;;4.53;1.55;;;19.00;99.90;;;;;;5059624;28;20521;-74
2022/06/11 07:38:26;;;;;;;2.67;1.00;;;19.20;99.90;;;;;;5076122;28;20065;-79
2022/06/11 07:40:52;;;;;;;1.88;1.23;;;19.20;99.90;;;;;;5076077;28;20127;-74
2022/06/11 07:43:19;;;;;;;5.53;1.30;;;19.00;99.90;;;;;;5059999;28;20056;-76
2022/06/11 07:45:45;;;;;;;13.48;5.53;;;19.20;99.90;;;;;;5059877;28;20468;-73
2022/06/11 07:48:12;;;;;;;6.63;1.80;;;19.50;99.90;;;;;;5075793;28;20052;-73
2022/06/11 07:50:41;;;;;;;7.82;1.98;;;19.40;99.90;;;;;;5076766;28;20123;-72
2022/06/11 07:53:08;;;;;;;4.38;1.70;;;19.40;99.90;;;;;;5076244;28;20518;-77
2022/06/11 07:55:35;;;;;;;9.02;1.75;;;19.30;99.90;;;;;;5076176;28;20040;-73
2022/06/11 07:58:01;;;;;;;2.72;1.15;;;19.50;99.90;;;;;;5075799;28;20044;-73
2022/06/11 08:00:30;;;;;;;5.97;1.23;;;19.40;99.90;;;;;;5075862;28;20076;-73
2022/06/11 08:02:56;;;;;;;5.22;1.63;;;19.40;99.90;;;;;;5075680;28;20036;-74
2022/06/11 08:05:22;;;;;;;5.72;1.40;;;19.50;99.90;;;;;;5058864;28;20044;-73
2022/06/11 08:07:51;;;;;;;5.20;1.55;;;19.60;99.90;;;;;;5075943;28;20051;-73
2022/06/11 08:10:17;;;;;;;3.05;1.27;;;;;;;;;;5075551;28;20085;-74
2022/06/11 08:12:43;;;;;;;6.93;1.58;;;;;;;;;;5075368;28;20090;-72
2022/06/11 08:15:10;;;;;;;4.50;1.30;;;;;;;;;;5075608;28;20040;-74
2022/06/11 08:17:36;;;;;;;13.18;1.83;;;;;;;;;;5059033;28;20062;-74
2022/06/11 08:20:03;;;;;;;6.15;1.60;;;;;;;;;;5093638;28;20115;-73
2022/06/11 08:22:30;;;;;;;4.70;1.50;;;;;;;;;;5075653;28;20044;-74
2022/06/11 08:24:56;;;;;;;3.97;1.33;;;;;;;;;;5075275;28;20032;-73
2022/06/11 08:27:23;;;;;;;5.93;1.27;;;;;;;;;;5074976;28;20131;-74
2022/06/11 08:29:49;;;;;;;2.58;1.02;;;;;;;;;;5075076;28;20032;-73
2022/06/11 08:32:15;;;;;;;8.25;1.75;;;;;;;;;;5075049;28;20040;-73
2022/06/11 08:34:42;;;;;;;7.25;1.17;;;;;;;;;;5074965;28;20047;-75
2022/06/11 08:37:09;;;;;;;4.88;0.88;;;;;;;;;;5058007;28;20070;-74
2022/06/11 08:39:35;;;;;;;5.43;1.33;;;;;;;;;;5058142;28;20415;-74
2022/06/11 08:42:02;;;;;;;9.35;1.60;;;;;;;;;;5074807;28;20509;-74
2022/06/11 08:44:29;;;;;;;5.80;1.50;;;;;;;;;;5075221;28;20044;-73
2022/06/11 08:46:56;;;;;;;4.28;1.73;;;;;;;;;;5074562;28;20051;-74
2022/06/11 08:49:25;;;;;;;2.50;1.17;;;;;;;;;;5074975;28;20121;-74
2022/06/11 08:51:51;;;;;;;3.13;1.25;;;;;;;;;;5074841;28;20118;-73
2022/06/11 08:54:19;;;;;;;2.88;1.00;;;;;;;;;;5074792;28;20094;-73
2022/06/11 08:56:48;;;;;;;4.97;1.70;;;;;;;;;;5074532;28;20275;-73
2022/06/11 08:59:17;;;;;;;7.72;1.17;;;;;;;;;;5074588;28;20119;-74
2022/06/11 09:02:00;;;;;;;1.80;0.98;;;;;;;;;;5058181;28;20040;-74
2022/06/11 09:04:38;;;;;;;2.97;1.05;;;;;;;;;;5074841;28;20048;-73
2022/06/11 09:07:20;;;;;;;7.40;1.23;;;;;;;;;;5074631;28;20050;-73
2022/06/11 09:09:58;;;;;;;5.13;1.05;;;;;;;;;;5058156;28;20445;-74
2022/06/11 09:12:27;;;;;;;4.60;1.55;;;;;;;;;;5057720;28;20068;-73
2022/06/11 09:15:17;;;;;;;4.10;1.23;;;21.70;99.90;;;;;;5074553;28;20036;-72
2022/06/11 09:17:51;;;;;;;2.47;1.02;;;21.70;99.90;;;;;;5074688;28;20392;-72
2022/06/11 09:20:47;;;;;;;5.65;1.48;;;21.50;99.90;;;;;;5074645;28;20044;-73
2022/06/11 09:23:35;;;;;;;6.13;1.42;;;21.50;99.90;;;;;;5074493;28;20157;-74
2022/06/11 09:26:28;;;;;;;4.30;1.30;;;21.50;99.90;;;;;;5074682;28;20101;-74
2022/06/11 09:29:00;;;;;;;5.80;0.90;;;21.50;99.90;;;;;;5057791;28;20055;-74
2022/06/11 09:31:37;;;;;;;6.30;1.23;;;21.40;99.90;;;;;;5074910;28;20052;-77
2022/06/11 09:34:15;;;;;;;4.95;1.45;;;21.10;99.90;;;;;;5075414;28;20044;-78
2022/06/11 09:36:43;;;;;;;3.42;0.85;;;20.80;99.90;;;;;;5074564;28;20125;-74
2022/06/11 09:39:28;;;;;;;2.78;1.02;;;20.80;99.90;;;;;;5074365;28;20040;-74
2022/06/11 09:42:06;;;;;;;3.47;1.10;;;20.70;99.90;;;;;;5057696;28;20044;-74
2022/06/11 09:44:48;;;;;;;3.83;0.73;;;20.70;99.90;;;;;;5074699;28;20043;-74
2022/06/11 09:47:55;;;;;;;3.25;0.85;;;20.70;99.90;;;;;;5074438;28;20059;-73
2022/06/11 09:50:23;;;;;;;7.65;1.60;;;20.70;99.90;;;;;;4978441;28;20050;-75
2022/06/11 09:53:03;;;;;;;3.58;1.05;;;20.80;99.90;;;;;;4994723;28;20125;-73
2022/06/11 09:55:57;;;;;;;4.00;1.00;;;21.00;99.90;;;;;;5038366;28;20460;-73
2022/06/11 09:58:29;;;;;;;4.40;0.60;;;21.10;99.90;;;;;;5078070;28;20044;-73
2022/06/11 10:01:01;;;;;;;5.78;1.30;;;21.10;99.90;;;;;;5078216;28;20379;-75
2022/06/11 10:03:41;;;;;;;6.18;1.35;;;21.10;99.90;;;;;;5077955;28;20040;-74
2022/06/11 10:06:07;;;;;;;2.78;0.77;;;21.20;99.90;;;;;;5077971;28;20039;-72
2022/06/11 10:08:48;;;;;;;2.72;0.93;;;21.30;99.90;;;;;;5078035;28;20113;-72
2022/06/11 10:11:30;;;;;;;1.38;0.40;;;21.40;99.90;;;;;;5078162;28;20048;-73
2022/06/11 10:17:02;;;;;;;7.60;1.25;;;21.80;99.90;;;;;;5077478;28;20410;-74
2022/06/11 10:19:46;;;;;;;8.48;0.75;;;21.60;99.90;;;;;;5077826;28;20548;-73
2022/06/11 10:22:24;;;;;;;4.38;0.80;;;21.50;99.90;;;;;;5077922;28;20047;-74
2022/06/11 10:25:11;;;;;;;4.38;1.15;;;21.60;99.90;;;;;;5077833;28;20067;-72
2022/06/11 10:27:43;;;;;;;2.50;0.82;;;21.50;99.90;;;;;;5077751;28;20055;-73
2022/06/11 10:30:45;;;;;;;3.58;0.65;;;21.60;99.90;;;;;;5077624;28;20063;-74
2022/06/11 10:33:34;;;;;;;2.10;0.63;;;21.60;99.90;;;;;;5073847;28;20110;-75
2022/06/11 10:36:07;;;;;;;4.22;0.93;;;21.80;99.90;;;;;;5077368;28;20094;-73
2022/06/11 10:38:48;;;;;;;4.57;0.70;;;21.70;99.90;;;;;;5077366;28;20116;-74
2022/06/11 10:41:22;;;;;;;5.03;0.95;;;21.60;99.90;;;;;;5077879;28;20131;-74
2022/06/11 10:44:02;;;;;;;2.65;0.50;;;21.40;99.90;;;;;;5077620;28;20392;-74
2022/06/11 10:46:29;;;;;;;;;;;21.30;99.90;;;;;;5077693;28;20074;-74
2022/06/11 10:48:54;;;;;;;3.42;1.00;;;21.30;99.90;;;;;;5077257;28;19971;-74
2022/06/11 10:51:31;;;;;;;3.50;0.65;;;21.30;99.90;;;;;;5077617;28;20047;-74
2022/06/11 10:54:20;;;;;;;3.17;0.65;;;21.50;99.90;;;;;;5077427;28;20036;-74
2022/06/11 10:57:21;;;;;;;4.45;1.30;;;21.60;99.90;;;;;;5077010;28;20036;-75
2022/06/11 11:00:02;;;;;;;1.73;0.70;;;21.70;99.90;;;;;;5075987;28;20043;-73
2022/06/11 11:02:39;;;;;;;3.17;0.88;;;21.70;99.90;;;;;;5077240;28;20036;-74
2022/06/11 11:05:07;;;;;;;3.75;0.90;;;21.50;99.90;;;;;;5076988;28;20040;-73
2022/06/11 11:07:52;;;;;;;5.30;0.95;;;21.50;99.90;;;;;;5076754;28;20049;-73
2022/06/11 11:10:20;;;;;;;3.40;0.75;;;21.50;99.90;;;;;;5060177;28;20076;-73
2022/06/11 11:12:46;;;;;;;2.78;0.98;;;21.60;99.90;;;;;;5076759;28;20071;-73
2022/06/11 11:15:18;;;;;;;1.55;0.60;;;21.80;99.90;;;;;;5076585;28;20464;-72
2022/06/11 11:17:56;;;;;;;3.15;1.00;;;22.00;99.90;;;;;;5077007;28;20443;-73
2022/06/11 11:20:40;;;;;;;3.55;0.93;;;22.10;99.90;;;;;;5076961;28;20086;-73
2022/06/11 11:23:15;;;;;;;1.55;0.55;;;22.00;99.90;;;;;;5076832;28;20474;-73
2022/06/11 11:26:21;;;;;;;0.43;0.25;;;21.90;99.90;;;;;;5076483;28;20040;-73
2022/06/11 11:28:59;;;;;;;1.48;0.75;;;21.90;99.90;;;;;;5075004;28;20068;-72
2022/06/11 11:31:55;;;;;;;3.60;0.85;;;21.80;99.90;;;;;;5076226;28;20083;-72
2022/06/11 11:34:20;;;;;;;1.63;0.80;;;21.70;99.90;;;;;;5076588;28;20035;-72
2022/06/11 11:36:46;;;;;;;4.28;0.95;;;21.70;99.90;;;;;;5076555;28;20038;-75
2022/06/11 11:39:12;;;;;;;4.07;0.88;;;21.70;99.90;;;;;;5076781;28;20040;-74
2022/06/11 11:41:51;;;;;;;16.45;2.08;;;21.60;99.90;;;;;;5076371;28;20043;-74
2022/06/11 11:44:20;;;;;;;5.25;1.00;;;21.60;99.90;;;;;;5076988;28;20040;-75
2022/06/11 11:47:00;;;;;;;3.03;0.77;;;21.60;99.90;;;;;;5059710;28;20055;-75
2022/06/11 11:49:30;;;;;;;2.33;0.77;;;21.70;99.90;;;;;;5077048;28;20423;-75
2022/06/11 11:52:04;;;;;;;3.20;0.67;;;21.80;99.90;;;;;;5059919;28;20395;-74
2022/06/11 11:54:31;;;;;;;2.08;0.70;;;22.10;99.90;;;;;;5076484;28;20278;-75
2022/06/11 11:57:01;;;;;;;4.63;0.90;;;22.20;99.90;;;;;;5076307;28;20130;-74
2022/06/11 11:59:36;;;;;;;2.53;0.73;;;22.40;99.90;;;;;;5076412;28;20032;-75
2022/06/11 12:02:41;;;;;;;2.72;0.77;;;22.40;99.90;;;;;;5076444;28;20047;-76
2022/06/11 12:05:35;;;;;;;4.53;0.57;;;22.50;99.90;;;;;;5076749;28;20040;-74
2022/06/11 12:08:09;;;;;;;2.58;0.82;;;22.50;99.90;;;;;;5066591;28;20051;-74
2022/06/11 12:10:38;;;;;;;2.38;0.77;;;22.50;99.90;;;;;;5076055;28;20054;-74
2022/06/11 12:13:23;;;;;;;2.65;0.57;;;22.60;99.90;;;;;;5076268;28;20076;-74
2022/06/11 12:16:00;;;;;;;7.10;0.73;;;22.70;99.90;;;;;;5075898;28;20115;-75
2022/06/11 12:18:50;;;;;;;1.70;0.65;;;22.80;99.90;;;;;;5059271;28;20127;-73
2022/06/11 12:21:25;;;;;;;3.92;0.70;;;22.50;99.90;;;;;;5076055;28;20052;-72
2022/06/11 12:24:06;;;;;;;5.43;1.10;;;22.40;99.90;;;;;;5075443;28;20032;-74
2022/06/11 12:26:39;;;;;;;3.03;0.98;;;22.30;99.90;;;;;;5076091;28;20176;-74
2022/06/11 12:29:14;;;;;;;4.43;1.00;;;22.30;99.90;;;;;;5075338;28;20127;-73
2022/06/11 12:31:41;;;;;;;11.18;1.55;;;22.30;99.90;;;;;;5058915;28;20044;-73
2022/06/11 12:34:16;;;;;;;5.13;0.93;;;22.20;99.90;;;;;;5075563;28;20039;-73
2022/06/11 12:37:08;;;;;;;2.28;0.98;;;22.20;99.90;;;;;;5059063;28;20075;-73
2022/06/11 12:39:37;;;;;;;5.45;0.77;;;22.40;99.90;;;;;;5058533;28;20440;-73
2022/06/11 12:42:23;;;;;;;7.40;1.23;;;22.50;99.90;;;;;;5075803;28;20047;-73
2022/06/11 12:45:11;;;;;;;4.78;0.77;;;22.70;99.90;;;;;;5025305;28;20094;-73
2022/06/11 12:48:02;;;;;;;2.45;0.82;;;22.90;99.90;;;;;;5075165;28;20131;-73
2022/06/11 12:50:34;;;;;;;5.03;0.80;;;22.70;99.90;;;;;;5075241;28;20055;-73
2022/06/11 12:53:24;;;;;;;1.50;0.65;;;22.80;99.90;;;;;;5075311;28;20105;-73
2022/06/11 12:56:06;;;;;;;2.55;0.77;;;22.60;99.90;;;;;;5027133;28;20046;-73
2022/06/11 12:58:42;;;;;;;2.17;0.60;;;22.70;99.90;;;;;;5075210;28;20050;-73
2022/06/11 13:01:30;;;;;;;3.95;0.82;;;22.50;99.90;;;;;;5058188;28;20506;-73
2022/06/11 13:04:19;;;;;;;2.40;0.57;;;22.60;99.90;;;;;;5074794;28;20052;-73
2022/06/11 13:06:56;;;;;;;3.03;0.75;;;22.60;99.90;;;;;;5026333;28;20079;-71
2022/06/11 13:09:30;;;;;;;2.63;1.20;;;22.60;99.90;;;;;;5074602;28;20158;-71
2022/06/11 13:12:16;;;;;;;2.97;0.85;;;22.80;99.90;;;;;;5074943;28;20028;-71
2022/06/11 13:14:43;;;;;;;3.05;0.73;;;23.00;99.90;;;;;;5074472;28;20048;-72
2022/06/11 13:17:14;;;;;;;2.58;0.70;;;23.10;99.90;;;;;;5074995;28;20040;-73
2022/06/11 13:19:52;;;;;;;2.33;0.77;;;22.90;99.90;;;;;;5074430;28;20400;-74
2022/06/11 13:22:35;;;;;;;1.67;0.50;;;22.90;99.90;;;;;;5074153;28;20112;-73
2022/06/11 13:25:13;;;;;;;2.10;0.65;;;22.70;99.90;;;;;;5058375;28;20043;-72
2022/06/11 13:27:45;;;;;;;0.73;0.40;;;22.60;99.90;;;;;;5074592;28;20414;-72
2022/06/11 13:30:31;;;;;;;4.22;0.85;;;22.70;99.90;;;;;;5074747;28;20445;-73
2022/06/11 13:33:17;;;;;;;4.55;1.13;;;22.90;99.90;;;;;;5074442;28;20037;-73
2022/06/11 13:36:04;;;;;;;3.58;0.90;;;22.70;99.90;;;;;;5074796;28;20142;-72
2022/06/11 13:38:40;;;;;;;1.65;0.82;;;22.80;99.90;;;;;;5074631;28;20453;-73
2022/06/11 13:41:42;;;;;;;2.22;0.70;;;22.80;99.90;;;;;;5074535;28;20051;-72